createdAt,value
2018-08-22T00:04:31.673Z,23.30
2018-08-22T00:09:35.641Z,23.10
2018-08-22T00:14:39.618Z,22.80
2018-08-22T00:19:44.478Z,22.80
2018-08-22T00:24:46.756Z,22.50
2018-08-22T00:29:48.886Z,22.40
2018-08-22T00:34:51.075Z,22.20
2018-08-22T00:39:53.212Z,22.10
2018-08-22T00:44:55.773Z,22.10
2018-08-22T00:50:00.789Z,22.00
2018-08-22T00:55:04.685Z,21.80
2018-08-22T01:00:06.829Z,21.30
2018-08-22T01:05:11.699Z,21.50
2018-08-22T01:10:14.342Z,21.00
2018-08-22T01:15:17.732Z,21.30
2018-08-22T01:20:23.239Z,21.20
2018-08-22T01:25:25.465Z,21.10
2018-08-22T01:30:28.537Z,21.30
2018-08-22T01:35:31.554Z,21.00
2018-08-22T01:40:33.701Z,21.00
2018-08-22T01:45:35.861Z,20.60
2018-08-22T01:50:41.337Z,20.70
2018-08-22T01:55:43.501Z,20.60
2018-08-22T02:00:48.355Z,20.60
2018-08-22T02:05:50.736Z,20.70
2018-08-22T02:10:52.902Z,20.60
2018-08-22T02:15:56.898Z,20.70
2018-08-22T02:20:59.437Z,20.50
2018-08-22T02:26:02.890Z,20.50
2018-08-22T02:31:06.475Z,20.60
2018-08-22T02:36:10.308Z,20.40
2018-08-22T02:41:12.742Z,20.30
2018-08-22T02:46:16.193Z,20.60
2018-08-22T02:51:18.326Z,20.10
2018-08-22T02:56:23.698Z,19.60
2018-08-22T03:01:26.330Z,19.80
2018-08-22T03:06:30.749Z,20.40
2018-08-22T03:11:32.906Z,19.90
2018-08-22T03:16:35.054Z,20.30
2018-08-22T03:21:37.205Z,20.30
2018-08-22T03:26:41.345Z,20.40
2018-08-22T03:31:43.506Z,20.20
2018-08-22T03:36:48.066Z,20.10
2018-08-22T03:41:51.767Z,20.20
2018-08-22T03:46:53.930Z,20.10
2018-08-22T03:52:00.846Z,20.00
2018-08-22T03:57:03.230Z,20.00
2018-08-22T04:02:05.941Z,20.00
2018-08-22T04:07:08.112Z,20.00
2018-08-22T04:12:13.330Z,19.80
2018-08-22T04:17:16.691Z,19.80
2018-08-22T04:22:22.929Z,19.90
2018-08-22T04:27:25.421Z,19.90
2018-08-22T04:32:28.053Z,19.90
2018-08-22T04:37:31.436Z,19.90
2018-08-22T04:42:36.783Z,18.90
2018-08-22T04:47:39.100Z,18.70
2018-08-22T04:52:41.349Z,18.50
2018-08-22T04:57:43.496Z,18.50
2018-08-22T05:02:45.862Z,18.40
2018-08-22T05:07:48.013Z,18.40
2018-08-22T05:12:50.155Z,18.40
2018-08-22T05:17:52.613Z,18.10
2018-08-22T05:22:56.786Z,18.40
2018-08-22T05:27:59.882Z,18.50
2018-08-22T05:33:02.202Z,19.10
2018-08-22T05:38:04.728Z,19.50
2018-08-22T05:43:07.906Z,19.80
2018-08-22T05:48:10.057Z,20.00
2018-08-22T05:53:12.252Z,20.30
2018-08-22T05:58:14.910Z,20.70
2018-08-22T06:03:17.749Z,20.80
2018-08-22T06:08:20.970Z,21.30
2018-08-22T06:13:24.694Z,21.50
2018-08-22T06:18:27.983Z,21.80
2018-08-22T06:23:30.998Z,22.10
2018-08-22T06:28:34.502Z,22.40
2018-08-22T06:33:37.667Z,22.70
2018-08-22T06:38:40.168Z,23.00
2018-08-22T06:43:42.406Z,23.20
2018-08-22T06:48:45.595Z,23.50
2018-08-22T06:53:48.829Z,24.00
2018-08-22T06:58:51.644Z,24.10
2018-08-22T07:03:53.741Z,24.50
2018-08-22T07:08:56.415Z,25.10
2018-08-22T07:13:59.036Z,25.30
2018-08-22T07:19:01.348Z,25.40
2018-08-22T07:24:03.536Z,25.40
2018-08-22T07:29:05.709Z,25.50
2018-08-22T07:34:07.856Z,26.00
2018-08-22T07:39:11.876Z,26.20
2018-08-22T07:44:14.331Z,26.90
2018-08-22T07:49:16.631Z,27.20
2018-08-22T07:54:19.000Z,26.80
2018-08-22T07:59:21.260Z,27.40
2018-08-22T08:04:23.411Z,28.00
2018-08-22T08:09:25.738Z,28.60
2018-08-22T08:14:28.002Z,28.30
2018-08-22T08:19:30.166Z,29.00
2018-08-22T08:24:32.338Z,29.30
2018-08-22T08:29:34.482Z,29.60
2018-08-22T08:34:36.638Z,30.20
2018-08-22T08:39:38.954Z,29.60
2018-08-22T08:44:41.252Z,30.40
2018-08-22T08:49:43.649Z,29.90
2018-08-22T08:54:45.889Z,31.10
2018-08-22T08:59:49.091Z,31.60
2018-08-22T09:04:51.245Z,31.80
2018-08-22T09:09:53.406Z,31.50
2018-08-22T09:19:57.771Z,31.60
2018-08-22T09:24:59.926Z,32.10
2018-08-22T09:30:02.192Z,32.40
2018-08-22T09:35:04.341Z,32.50
2018-08-22T09:40:06.511Z,32.50
2018-08-22T09:45:08.769Z,32.80
2018-08-22T09:50:11.123Z,32.20
2018-08-22T09:55:13.270Z,32.00
2018-08-22T10:00:21.108Z,32.40
2018-08-22T10:05:23.310Z,32.80
2018-08-22T10:10:25.454Z,32.80
2018-08-22T10:15:27.585Z,32.70
2018-08-22T10:20:29.837Z,32.00
2018-08-22T10:25:32.066Z,32.10
2018-08-22T10:30:34.225Z,32.60
2018-08-22T10:35:36.398Z,32.80
2018-08-22T10:40:38.555Z,32.30
2018-08-22T10:45:40.714Z,31.90
2018-08-22T10:50:42.908Z,32.70
2018-08-22T10:55:45.669Z,32.50
2018-08-22T11:00:47.834Z,32.80
2018-08-22T11:05:50.154Z,32.10
2018-08-22T11:10:52.348Z,32.20
2018-08-22T11:15:54.595Z,32.70
2018-08-22T11:21:08.310Z,32.40
2018-08-22T11:26:22.018Z,32.70
2018-08-22T11:31:35.745Z,32.70
2018-08-22T11:36:37.091Z,32.50
2018-08-22T11:41:39.238Z,32.20
2018-08-22T11:46:41.415Z,32.30
2018-08-22T11:51:43.530Z,32.40
2018-08-22T11:56:45.698Z,32.70
2018-08-22T12:01:48.287Z,32.40
2018-08-22T12:06:50.845Z,32.50
2018-08-22T12:11:53.060Z,32.50
2018-08-22T12:16:55.303Z,32.50
2018-08-22T12:21:57.533Z,32.30
2018-08-22T12:26:59.721Z,32.10
2018-08-22T12:32:01.884Z,32.50
2018-08-22T12:37:04.525Z,32.60
2018-08-22T12:42:06.693Z,32.50
2018-08-22T12:47:08.866Z,32.50
2018-08-22T12:52:11.085Z,32.80
2018-08-22T12:57:13.484Z,32.80
2018-08-22T13:02:15.587Z,32.50
2018-08-22T13:07:17.749Z,32.60
2018-08-22T13:12:19.897Z,32.50
2018-08-22T13:17:22.137Z,32.80
2018-08-22T13:22:24.281Z,32.50
2018-08-22T13:27:26.421Z,32.70
2018-08-22T13:32:29.205Z,32.80
2018-08-22T13:37:31.349Z,32.80
2018-08-22T13:42:34.269Z,32.90
2018-08-22T13:47:36.417Z,32.60
2018-08-22T13:52:38.566Z,32.80
2018-08-22T13:57:40.857Z,33.10
2018-08-22T14:02:43.061Z,33.00
2018-08-22T14:07:45.341Z,33.10
2018-08-22T14:12:47.652Z,33.00
2018-08-22T14:17:49.962Z,33.00
2018-08-22T14:22:52.318Z,33.00
2018-08-22T14:27:54.690Z,33.00
2018-08-22T14:32:56.857Z,32.80
2018-08-22T14:37:59.133Z,32.70
2018-08-22T14:43:01.305Z,32.80
2018-08-22T14:48:03.626Z,32.70
2018-08-22T14:53:05.884Z,32.90
2018-08-22T14:58:08.116Z,32.90
2018-08-22T15:03:10.553Z,32.70
2018-08-22T15:08:12.532Z,32.50
2018-08-22T15:13:14.719Z,32.60
2018-08-22T15:18:16.916Z,32.60
2018-08-22T15:23:19.127Z,32.40
2018-08-22T15:28:21.307Z,32.50
2018-08-22T15:33:23.447Z,32.40
2018-08-22T15:38:25.652Z,32.40
2018-08-22T15:43:27.817Z,32.30
2018-08-22T15:48:29.970Z,32.20
2018-08-22T15:53:32.221Z,32.30
2018-08-22T15:58:34.394Z,32.20
2018-08-22T16:03:36.545Z,32.10
2018-08-22T16:08:38.693Z,32.10
2018-08-22T16:13:40.851Z,32.10
2018-08-22T16:18:43.006Z,32.00
2018-08-22T16:23:45.793Z,32.10
2018-08-22T16:28:56.269Z,32.00
2018-08-22T16:33:58.406Z,31.90
2018-08-22T16:39:00.921Z,31.90
2018-08-22T16:49:07.513Z,31.90
2018-08-22T16:54:09.933Z,31.90
2018-08-22T16:59:12.961Z,31.80
2018-08-22T17:04:15.113Z,31.70
2018-08-22T17:09:17.341Z,31.60
2018-08-22T17:14:19.470Z,31.60
2018-08-22T17:19:21.613Z,31.50
2018-08-22T17:24:23.828Z,31.50
2018-08-22T17:29:25.994Z,31.40
2018-08-22T17:34:28.134Z,31.40
2018-08-22T17:39:31.553Z,31.30
2018-08-22T17:44:33.706Z,31.30
2018-08-22T17:49:35.848Z,31.20
2018-08-22T17:54:37.990Z,31.30
2018-08-22T17:59:41.124Z,31.10
2018-08-22T18:04:51.463Z,30.80
2018-08-22T18:09:53.705Z,30.50
2018-08-22T18:14:56.945Z,30.10
2018-08-22T18:19:59.485Z,30.00
2018-08-22T18:25:01.654Z,29.60
2018-08-22T18:30:03.869Z,29.30
2018-08-22T18:35:08.923Z,29.00
2018-08-22T18:40:23.802Z,28.80
2018-08-22T18:45:26.492Z,28.70
2018-08-22T18:50:28.703Z,28.50
2018-08-22T18:55:32.301Z,28.20
2018-08-22T19:00:35.891Z,28.00
2018-08-22T19:05:38.101Z,27.80
2018-08-22T19:10:41.625Z,27.60
2018-08-22T19:15:49.237Z,27.50
2018-08-22T19:20:53.573Z,27.30
2018-08-22T19:25:56.375Z,27.20
2018-08-22T19:30:58.608Z,27.10
2018-08-22T19:36:00.869Z,27.10
2018-08-22T19:41:18.898Z,26.90
2018-08-22T19:46:21.489Z,26.80
2018-08-22T19:51:23.648Z,26.70
2018-08-22T19:56:26.634Z,26.50
2018-08-22T20:01:30.308Z,26.50
2018-08-22T20:06:32.542Z,26.40
2018-08-22T20:11:34.789Z,26.20
2018-08-22T20:16:37.110Z,26.20
2018-08-22T20:21:40.958Z,26.10
2018-08-22T20:26:48.589Z,26.10
2018-08-22T20:31:50.737Z,25.90
2018-08-22T20:36:52.941Z,25.90
2018-08-22T20:42:01.579Z,26.00
2018-08-22T20:47:03.712Z,25.50
2018-08-22T20:52:05.850Z,25.50
2018-08-22T20:57:10.534Z,25.60
2018-08-22T21:02:12.749Z,25.50
2018-08-22T21:07:25.265Z,25.00
2018-08-22T21:12:27.460Z,24.80
2018-08-22T21:17:29.605Z,24.90
2018-08-22T21:22:31.987Z,24.70
2018-08-22T21:27:34.334Z,24.80
2018-08-22T21:32:36.631Z,24.60
2018-08-22T21:37:39.282Z,24.50
2018-08-22T21:42:43.024Z,24.50
2018-08-22T21:47:45.233Z,24.20
2018-08-22T21:52:52.721Z,24.40
2018-08-22T21:57:55.894Z,24.30
2018-08-22T22:02:58.898Z,24.10
2018-08-22T22:08:02.578Z,24.40
2018-08-22T22:13:05.533Z,24.30
2018-08-22T22:18:07.930Z,23.80
2018-08-22T22:23:10.081Z,23.60
2018-08-22T22:28:12.499Z,23.80
2018-08-22T22:33:14.757Z,23.80
2018-08-22T22:38:16.941Z,23.70
2018-08-22T22:43:19.106Z,23.70
2018-08-22T22:48:34.238Z,23.90
2018-08-22T22:53:36.650Z,23.80
2018-08-22T22:58:38.850Z,23.70
2018-08-22T23:03:41.317Z,23.50
2018-08-22T23:08:43.925Z,23.60
2018-08-22T23:13:46.145Z,23.60
2018-08-22T23:18:49.596Z,23.60
2018-08-22T23:23:52.497Z,23.30
2018-08-22T23:28:54.659Z,23.30
2018-08-22T23:33:57.410Z,23.10
2018-08-22T23:38:59.597Z,23.20
2018-08-22T23:44:01.763Z,23.00
2018-08-22T23:49:03.928Z,22.90
2018-08-22T23:54:06.049Z,23.00
2018-08-22T23:59:08.196Z,22.70
